Atbasar, Kazakhstan
Current Conditions -  °F | °C
As of 2:00 PM on Thursday 23 Oct 2014 (Local Time) from UACK Reporting Station
Overcast Overcast  
Wind Chill: 30°   Ceiling: 900
Heat Index: 39°   Visibility: 6mi
Dew Point: 37°   Wind: 18mph
Humidity: 93%   Direction: 220°SW
Pressure: 29.62"   Gusts: NA
Location:  51.82°N, 68.35°E
Report Text: UACK 230800Z 22008MPS 9999 OVC009CB 04/03 Q1003 R20/290554NOSIG RMK QFE729/0972
Loading
Personal Weather Stations






























Interactive Weather Map New forecast layout! Learn more

10-Day Weather Forecast

Advertisements
Track Severe Weather on mobile